Beiseker, Canada
Current Conditions -  °F | °C
As of 5:00 AM on Friday 28 Nov 2014 (Local Time) from CYYC Reporting Station
Haze Haze  
Wind Chill: -22°   Ceiling: 1300
Heat Index:   Visibility: 5mi
Dew Point: -6°   Wind: 18mph
Humidity: 78%   Direction: 350°N
Pressure: 29.59"   Gusts: NA
Location:  51.38°N, 113.53°W
Report Text: CYYC 281200Z 35016KT 5SM BR OVC013 M18/M21 A2959 RMK SC8 SNOW COVER/MEDIUM PACK SLP102
Loading
Personal Weather Stations






























Interactive Weather Map New forecast layout! Learn more

10-Day Weather Forecast

Advertisements
Track Severe Weather on mobile